createdAt,value
2023-04-12T00:01:32.531Z,3.27
2023-04-12T00:04:03.434Z,3.80
2023-04-12T00:06:33.320Z,2.67
2023-04-12T00:09:01.291Z,2.53
2023-04-12T00:11:29.461Z,2.87
2023-04-12T00:13:57.435Z,2.67
2023-04-12T00:16:25.542Z,3.37
2023-04-12T00:18:53.309Z,3.13
2023-04-12T00:21:23.886Z,3.00
2023-04-12T00:23:51.712Z,3.10
2023-04-12T00:26:21.003Z,3.90
2023-04-12T00:28:49.213Z,3.47
2023-04-12T00:31:17.013Z,3.00
2023-04-12T00:33:44.948Z,3.20
2023-04-12T00:36:12.816Z,3.00
2023-04-12T00:38:42.222Z,3.50
2023-04-12T00:41:10.068Z,3.77
2023-04-12T00:43:37.854Z,3.90
2023-04-12T00:46:06.042Z,3.47
2023-04-12T00:48:37.790Z,4.10
2023-04-12T00:51:07.919Z,3.20
2023-04-12T00:53:35.851Z,3.50
2023-04-12T00:56:05.595Z,4.20
2023-04-12T00:58:33.355Z,3.57
2023-04-12T01:01:01.185Z,3.60
2023-04-12T01:03:30.887Z,4.20
2023-04-12T01:06:09.578Z,3.77
2023-04-12T01:08:52.434Z,3.73
2023-04-12T01:11:31.504Z,3.77
2023-04-12T01:14:07.184Z,4.43
2023-04-12T01:16:41.074Z,3.57
2023-04-12T01:19:28.588Z,3.17
2023-04-12T01:22:11.554Z,3.20
2023-04-12T01:24:52.873Z,3.80
2023-04-12T01:27:35.729Z,3.03
2023-04-12T01:30:05.554Z,3.10
2023-04-12T01:32:35.500Z,3.20
2023-04-12T01:35:05.483Z,2.83
2023-04-12T01:37:33.282Z,3.13
2023-04-12T01:40:02.083Z,3.00
2023-04-12T01:42:31.382Z,3.00
2023-04-12T01:44:59.461Z,2.70
2023-04-12T01:47:28.122Z,2.77
2023-04-12T01:50:04.702Z,2.80
2023-04-12T01:52:37.546Z,2.73
2023-04-12T01:55:07.665Z,4.10
2023-04-12T01:57:38.965Z,3.33
2023-04-12T02:00:11.625Z,3.33
2023-04-12T02:02:39.986Z,3.80
2023-04-12T02:05:10.256Z,5.77
2023-04-12T02:07:38.228Z,2.93
2023-04-12T02:10:06.731Z,3.27
2023-04-12T02:12:35.823Z,4.43
2023-04-12T02:18:44.232Z,2.77
2023-04-12T02:21:11.961Z,3.70
2023-04-12T02:23:39.741Z,3.80
2023-04-12T02:26:07.792Z,3.87
2023-04-12T02:28:37.280Z,4.40
2023-04-12T02:31:05.801Z,3.80
2023-04-12T02:33:34.735Z,3.53
2023-04-12T02:36:03.431Z,3.83
2023-04-12T02:38:31.368Z,3.60
2023-04-12T02:40:59.104Z,2.97
2023-04-12T02:43:26.789Z,3.63
2023-04-12T02:45:55.853Z,3.87
2023-04-12T02:48:23.584Z,3.80
2023-04-12T02:50:51.322Z,3.90
2023-04-12T02:53:19.066Z,4.10
2023-04-12T02:55:46.783Z,3.90
2023-04-12T02:58:14.556Z,3.43
2023-04-12T03:00:43.825Z,4.73
2023-04-12T03:03:13.138Z,3.50
2023-04-12T03:05:40.971Z,3.40
2023-04-12T03:08:08.936Z,3.77
2023-04-12T03:10:36.642Z,3.53
2023-04-12T03:13:04.993Z,3.80
2023-04-12T03:15:32.880Z,3.70
2023-04-12T03:18:00.674Z,4.20
2023-04-12T03:20:29.904Z,3.70
2023-04-12T03:22:57.738Z,4.13
2023-04-12T03:25:25.596Z,4.33
2023-04-12T03:27:53.314Z,5.00
2023-04-12T03:30:21.109Z,6.30
2023-04-12T03:32:48.958Z,4.27
2023-04-12T03:35:16.735Z,4.23
2023-04-12T03:37:45.862Z,4.30
2023-04-12T03:40:14.527Z,4.77
2023-04-12T03:42:42.256Z,4.77
2023-04-12T03:45:10.432Z,5.57
2023-04-12T03:47:38.343Z,5.30
2023-04-12T03:50:12.321Z,5.90
2023-04-12T03:52:40.467Z,5.80
2023-04-12T03:55:11.891Z,4.20
2023-04-12T03:57:39.687Z,4.10
2023-04-12T04:00:09.633Z,5.77
2023-04-12T04:02:38.424Z,5.33
2023-04-12T04:05:07.065Z,4.80
2023-04-12T04:07:35.104Z,4.80
2023-04-12T04:10:02.955Z,5.00
2023-04-12T04:12:32.074Z,16.43
2023-04-12T04:14:59.806Z,6.33
2023-04-12T04:17:27.548Z,5.23
2023-04-12T04:19:55.328Z,7.67
2023-04-12T04:22:23.042Z,9.47
2023-04-12T04:24:51.648Z,10.27
2023-04-12T04:27:20.444Z,7.03
2023-04-12T04:29:51.151Z,7.43
2023-04-12T04:32:18.895Z,9.90
2023-04-12T04:34:46.666Z,16.47
2023-04-12T04:37:14.429Z,16.23
2023-04-12T04:39:42.185Z,15.00
2023-04-12T04:42:10.059Z,9.33
2023-04-12T04:44:40.250Z,9.03
2023-04-12T04:47:09.431Z,6.50
2023-04-12T04:49:38.064Z,6.20
2023-04-12T04:52:06.744Z,5.53
2023-04-12T04:54:34.573Z,5.87
2023-04-12T04:57:02.981Z,6.23
2023-04-12T04:59:31.179Z,5.60
2023-04-12T05:01:58.924Z,6.30
2023-04-12T05:04:28.148Z,6.27
2023-04-12T05:06:55.900Z,5.20
2023-04-12T05:09:23.631Z,4.90
2023-04-12T05:11:51.302Z,4.83
2023-04-12T05:14:19.386Z,4.70
2023-04-12T05:16:48.132Z,5.60
2023-04-12T05:19:15.864Z,4.33
2023-04-12T05:21:45.025Z,4.23
2023-04-12T05:24:13.142Z,4.20
2023-04-12T05:26:40.884Z,4.93
2023-04-12T05:29:08.745Z,4.77
2023-04-12T05:31:36.433Z,4.40
2023-04-12T05:34:04.208Z,4.17
2023-04-12T05:36:33.444Z,4.47
2023-04-12T05:39:02.563Z,4.90
2023-04-12T05:41:31.230Z,4.90
2023-04-12T05:43:58.925Z,9.47
2023-04-12T05:46:26.775Z,11.87
2023-04-12T05:48:54.737Z,10.73
2023-04-12T05:51:33.942Z,16.67
2023-04-12T05:54:10.681Z,5.13
2023-04-12T05:56:38.782Z,5.13
2023-04-12T05:59:07.223Z,4.70
2023-04-12T06:01:35.050Z,4.63
2023-04-12T06:04:04.068Z,4.40
2023-04-12T06:06:32.094Z,4.30
2023-04-12T06:09:00.669Z,4.80
2023-04-12T06:11:31.548Z,4.40
2023-04-12T06:13:59.384Z,4.47
2023-04-12T06:16:27.324Z,4.50
2023-04-12T06:18:55.303Z,5.77
2023-04-12T06:21:24.153Z,6.57
2023-04-12T06:23:51.968Z,4.23
2023-04-12T06:26:23.353Z,4.43
2023-04-12T06:28:52.685Z,5.03
2023-04-12T06:31:20.840Z,5.07
2023-04-12T06:33:50.446Z,4.23
2023-04-12T06:36:18.232Z,4.47
2023-04-12T06:38:46.044Z,4.53
2023-04-12T06:41:13.931Z,5.80
2023-04-12T06:43:41.715Z,5.83
2023-04-12T06:46:11.004Z,4.80
2023-04-12T06:48:38.646Z,5.73
2023-04-12T06:51:07.727Z,5.63
2023-04-12T06:53:35.827Z,4.27
2023-04-12T06:56:05.466Z,3.90
2023-04-12T06:58:33.165Z,4.27
2023-04-12T07:01:06.578Z,4.80
2023-04-12T07:03:35.978Z,4.60
2023-04-12T07:06:17.302Z,4.87
2023-04-12T07:08:52.146Z,5.20
2023-04-12T07:11:22.450Z,4.23
2023-04-12T07:13:51.071Z,4.40
2023-04-12T07:16:19.112Z,4.07
2023-04-12T07:18:48.526Z,3.37
2023-04-12T07:21:17.807Z,3.70
2023-04-12T07:23:46.531Z,3.37
2023-04-12T07:26:14.254Z,4.90
2023-04-12T07:28:41.989Z,3.20
2023-04-12T07:31:09.944Z,3.73
2023-04-12T07:33:39.422Z,3.60
2023-04-12T07:36:10.599Z,3.27
2023-04-12T07:38:38.410Z,3.00
2023-04-12T07:41:06.486Z,3.93
2023-04-12T07:43:34.282Z,2.67
2023-04-12T07:46:07.548Z,2.50
2023-04-12T07:48:35.676Z,2.60
2023-04-12T07:51:03.505Z,2.40
2023-04-12T07:53:32.776Z,3.20
2023-04-12T07:56:00.662Z,2.50
2023-04-12T07:58:28.429Z,2.37
2023-04-12T08:00:58.070Z,1.97
2023-04-12T08:03:28.073Z,2.80
2023-04-12T08:05:56.088Z,2.67
2023-04-12T08:08:24.237Z,2.50
2023-04-12T08:10:54.048Z,2.40
2023-04-12T08:13:22.115Z,2.17
2023-04-12T08:15:50.026Z,2.17
2023-04-12T08:18:17.776Z,1.73
2023-04-12T08:20:45.600Z,1.80
2023-04-12T08:23:13.525Z,2.70
2023-04-12T08:25:41.693Z,2.03
2023-04-12T08:28:10.863Z,2.60
2023-04-12T08:30:38.823Z,2.27
2023-04-12T08:33:06.600Z,1.93
2023-04-12T08:35:34.392Z,2.40
2023-04-12T08:38:07.975Z,2.00
2023-04-12T08:40:36.901Z,1.73
2023-04-12T08:43:09.810Z,2.90
2023-04-12T08:45:39.296Z,1.70
2023-04-12T08:48:07.373Z,1.87
2023-04-12T08:50:35.319Z,2.37
2023-04-12T08:53:04.049Z,2.00
2023-04-12T08:55:31.908Z,1.90
2023-04-12T08:58:00.877Z,1.80
2023-04-12T09:00:28.700Z,2.10
2023-04-12T09:02:58.288Z,2.30
2023-04-12T09:05:30.163Z,2.10
2023-04-12T09:07:58.096Z,1.50
2023-04-12T09:10:33.738Z,2.30
2023-04-12T09:13:01.713Z,2.00
2023-04-12T09:15:29.597Z,2.00
2023-04-12T09:18:07.327Z,1.70
2023-04-12T09:20:35.651Z,2.00
2023-04-12T09:23:21.000Z,2.20
2023-04-12T09:25:51.927Z,2.03
2023-04-12T09:28:25.646Z,2.00
2023-04-12T09:30:54.173Z,1.70
2023-04-12T09:33:33.245Z,1.87
2023-04-12T09:36:02.618Z,1.97
2023-04-12T09:38:30.907Z,2.03
2023-04-12T09:40:59.171Z,1.73
2023-04-12T09:43:40.230Z,1.57
2023-04-12T09:46:12.232Z,1.90
2023-04-12T09:48:42.179Z,2.07
2023-04-12T09:51:10.106Z,2.27
2023-04-12T09:53:43.426Z,2.00
2023-04-12T09:56:13.433Z,2.10
2023-04-12T09:58:41.726Z,2.13
2023-04-12T10:01:12.277Z,2.27
2023-04-12T10:03:41.659Z,2.60
2023-04-12T10:06:13.562Z,1.73
2023-04-12T10:08:42.871Z,3.03
2023-04-12T10:11:11.613Z,2.27
2023-04-12T10:13:40.661Z,1.90
2023-04-12T10:16:11.136Z,2.60
2023-04-12T10:18:41.322Z,2.33
2023-04-12T10:21:15.527Z,2.10
2023-04-12T10:23:45.483Z,1.97
2023-04-12T10:26:13.313Z,2.30
2023-04-12T10:28:46.747Z,2.60
2023-04-12T10:31:32.492Z,2.23
2023-04-12T10:34:03.738Z,1.90
2023-04-12T10:36:56.154Z,1.73
2023-04-12T10:39:38.919Z,2.30
2023-04-12T10:42:27.317Z,2.00
2023-04-12T10:45:00.376Z,2.70
2023-04-12T10:48:01.534Z,2.17
2023-04-12T10:50:32.208Z,2.13
2023-04-12T10:53:25.946Z,2.00
2023-04-12T10:55:54.054Z,2.30
2023-04-12T10:58:55.553Z,2.10
2023-04-12T11:01:23.540Z,2.97
2023-04-12T11:04:18.043Z,2.10
2023-04-12T11:07:02.725Z,2.40
2023-04-12T11:09:38.835Z,2.20
2023-04-12T11:12:14.401Z,1.90
2023-04-12T11:14:46.851Z,2.57
2023-04-12T11:17:25.421Z,2.00
2023-04-12T11:19:58.746Z,1.90
2023-04-12T11:22:30.039Z,2.10
2023-04-12T11:24:59.319Z,2.50
2023-04-12T11:27:28.564Z,2.37
2023-04-12T11:29:57.785Z,2.13
2023-04-12T11:32:27.528Z,2.77
2023-04-12T11:34:57.115Z,6.83
2023-04-12T11:37:26.889Z,2.83
2023-04-12T11:39:59.091Z,3.90
2023-04-12T11:42:28.850Z,2.43
2023-04-12T11:45:01.561Z,3.13
2023-04-12T11:47:32.983Z,4.83
2023-04-12T11:50:00.790Z,2.67
2023-04-12T11:52:30.582Z,2.23
2023-04-12T11:55:02.269Z,1.83
2023-04-12T11:57:31.087Z,2.53
2023-04-12T12:00:00.136Z,2.33
2023-04-12T12:02:32.811Z,8.57
2023-04-12T12:05:03.266Z,2.33
2023-04-12T12:07:31.822Z,2.40
2023-04-12T12:10:02.158Z,1.87
2023-04-12T12:12:34.733Z,2.10
2023-04-12T12:15:03.417Z,2.37
2023-04-12T12:17:31.680Z,2.47
2023-04-12T12:20:01.424Z,1.70
2023-04-12T12:22:29.249Z,1.80
2023-04-12T12:24:58.839Z,2.30
2023-04-12T12:27:36.665Z,2.13
2023-04-12T12:30:05.788Z,1.93
2023-04-12T12:32:35.690Z,4.23
2023-04-12T12:35:04.430Z,2.70
2023-04-12T12:37:32.294Z,2.07
2023-04-12T12:40:11.349Z,2.03
2023-04-12T12:42:47.645Z,1.80
2023-04-12T12:45:16.058Z,2.70
2023-04-12T12:47:51.732Z,2.20
2023-04-12T12:50:22.038Z,2.17
2023-04-12T12:52:52.228Z,2.67
2023-04-12T12:55:21.185Z,2.50
2023-04-12T12:58:06.838Z,2.50
2023-04-12T13:00:36.369Z,2.10
2023-04-12T13:03:04.767Z,1.83
2023-04-12T13:05:32.837Z,1.90
2023-04-12T13:08:00.601Z,2.30
2023-04-12T13:10:28.425Z,3.00
2023-04-12T13:12:58.684Z,2.30
2023-04-12T13:15:26.470Z,3.40
2023-04-12T13:17:54.510Z,2.80
2023-04-12T13:20:22.663Z,3.43
2023-04-12T13:22:51.458Z,3.17
2023-04-12T13:25:20.507Z,3.27
2023-04-12T13:27:49.003Z,5.40
2023-04-12T13:30:18.953Z,8.30
2023-04-12T13:32:46.916Z,3.80
2023-04-12T13:35:14.731Z,2.23
2023-04-12T13:37:42.704Z,2.30
2023-04-12T13:40:11.302Z,1.97
2023-04-12T13:42:39.186Z,2.73
2023-04-12T13:45:08.064Z,2.00
2023-04-12T13:47:37.237Z,2.50
2023-04-12T13:50:08.436Z,2.63
2023-04-12T13:52:36.294Z,2.20
2023-04-12T13:55:08.009Z,1.60
2023-04-12T13:57:36.440Z,2.20
2023-04-12T14:00:04.603Z,2.07
2023-04-12T14:02:32.590Z,2.23
2023-04-12T14:05:01.853Z,3.67
2023-04-12T14:07:29.709Z,2.43
2023-04-12T14:09:57.838Z,2.00
2023-04-12T14:12:25.764Z,1.70
2023-04-12T14:14:53.487Z,1.60
2023-04-12T14:17:21.397Z,1.87
2023-04-12T14:19:49.295Z,1.80
2023-04-12T14:22:19.188Z,2.10
2023-04-12T14:24:47.014Z,1.97
2023-04-12T14:27:17.905Z,1.53
2023-04-12T14:29:49.544Z,2.03
2023-04-12T14:32:17.284Z,2.07
2023-04-12T14:34:46.321Z,1.93
2023-04-12T14:37:14.082Z,2.27
2023-04-12T14:39:47.137Z,2.40
2023-04-12T14:42:15.836Z,2.00
2023-04-12T14:44:43.664Z,2.83
2023-04-12T14:47:11.487Z,2.63
2023-04-12T14:49:39.527Z,3.40
2023-04-12T14:52:07.993Z,2.37
2023-04-12T14:54:36.236Z,2.00
2023-04-12T14:57:09.296Z,2.07
2023-04-12T14:59:39.763Z,1.80
2023-04-12T15:02:10.710Z,2.40
2023-04-12T15:04:38.598Z,1.90
2023-04-12T15:07:06.566Z,3.47
2023-04-12T15:09:34.343Z,6.77
2023-04-12T15:12:02.118Z,1.97
2023-04-12T15:14:31.406Z,2.10
2023-04-12T15:16:59.162Z,2.00
2023-04-12T15:19:27.311Z,2.77
2023-04-12T15:21:55.983Z,2.40
2023-04-12T15:24:29.739Z,2.00
2023-04-12T15:26:57.534Z,2.50
2023-04-12T15:29:27.716Z,2.10
2023-04-12T15:31:56.982Z,2.60
2023-04-12T15:34:25.557Z,2.50
2023-04-12T15:36:53.559Z,2.60
2023-04-12T15:39:21.524Z,2.67
2023-04-12T15:41:49.538Z,2.20
2023-04-12T15:44:17.452Z,2.07
2023-04-12T15:46:56.004Z,2.53
2023-04-12T15:49:28.710Z,2.60
2023-04-12T15:51:57.752Z,2.77
2023-04-12T15:54:25.631Z,2.27
2023-04-12T15:56:53.891Z,2.30
2023-04-12T15:59:21.659Z,2.10
2023-04-12T16:01:49.625Z,2.83
2023-04-12T16:04:18.376Z,2.63
2023-04-12T16:06:47.856Z,2.70
2023-04-12T16:09:16.720Z,2.77
2023-04-12T16:11:49.068Z,2.73
2023-04-12T16:14:17.466Z,2.60
2023-04-12T16:16:46.593Z,2.90
2023-04-12T16:19:14.519Z,7.87
2023-04-12T16:21:44.499Z,9.70
2023-04-12T16:24:13.797Z,3.30
2023-04-12T16:26:41.952Z,3.60
2023-04-12T16:29:10.728Z,3.50
2023-04-12T16:31:38.687Z,3.10
2023-04-12T16:34:06.678Z,3.60
2023-04-12T16:36:37.521Z,12.30
2023-04-12T16:39:06.270Z,4.03
2023-04-12T16:41:35.384Z,4.00
2023-04-12T16:44:03.370Z,3.43
2023-04-12T16:46:31.412Z,4.00
2023-04-12T16:48:59.618Z,3.67
2023-04-12T16:51:36.648Z,4.17
2023-04-12T16:54:05.648Z,3.80
2023-04-12T16:56:34.958Z,4.10
2023-04-12T16:59:02.810Z,3.70
2023-04-12T17:01:30.538Z,3.73
2023-04-12T17:04:00.028Z,3.97
2023-04-12T17:06:30.270Z,3.43
2023-04-12T17:08:58.130Z,3.70
2023-04-12T17:11:26.606Z,3.70
2023-04-12T17:13:57.319Z,4.10
2023-04-12T17:16:25.345Z,4.80
2023-04-12T17:18:53.088Z,3.13
2023-04-12T17:21:22.347Z,3.20
2023-04-12T17:23:50.289Z,3.13
2023-04-12T17:26:19.014Z,3.43
2023-04-12T17:28:46.799Z,2.63
2023-04-12T17:31:20.860Z,3.40
2023-04-12T17:33:48.715Z,3.30
2023-04-12T17:36:16.533Z,3.80
2023-04-12T17:38:44.338Z,3.20
2023-04-12T17:41:12.188Z,4.30
2023-04-12T17:43:39.899Z,3.63
2023-04-12T17:46:07.768Z,3.10
2023-04-12T17:48:36.933Z,3.60
2023-04-12T17:51:05.483Z,4.17
2023-04-12T17:53:33.382Z,3.83
2023-04-12T17:56:01.406Z,3.90
2023-04-12T17:58:29.861Z,3.60
2023-04-12T18:00:57.812Z,3.40
2023-04-12T18:03:26.318Z,6.03
2023-04-12T18:05:55.707Z,3.80
2023-04-12T18:08:23.918Z,3.43
2023-04-12T18:10:52.244Z,3.40
2023-04-12T18:13:20.574Z,3.60
2023-04-12T18:15:48.379Z,3.83
2023-04-12T18:18:16.206Z,3.70
2023-04-12T18:20:44.049Z,3.93
2023-04-12T18:23:13.186Z,3.87
2023-04-12T18:25:40.957Z,3.10
2023-04-12T18:28:09.880Z,3.37
2023-04-12T18:30:37.727Z,3.83
2023-04-12T18:33:05.978Z,3.37
2023-04-12T18:35:33.779Z,3.03
2023-04-12T18:38:01.591Z,3.20
2023-04-12T18:40:30.785Z,3.80
2023-04-12T18:42:59.405Z,3.60
2023-04-12T18:45:27.156Z,3.70
2023-04-12T18:47:55.178Z,3.33
2023-04-12T18:50:23.345Z,3.40
2023-04-12T18:52:51.045Z,3.23
2023-04-12T18:55:20.459Z,2.90
2023-04-12T18:57:49.658Z,3.43
2023-04-12T19:00:19.639Z,2.97
2023-04-12T19:02:47.587Z,2.50
2023-04-12T19:05:15.491Z,3.00
2023-04-12T19:07:43.507Z,3.30
2023-04-12T19:10:13.924Z,3.00
2023-04-12T19:12:41.659Z,3.47
2023-04-12T19:15:11.886Z,2.63
2023-04-12T19:17:40.152Z,2.97
2023-04-12T19:20:10.751Z,2.73
2023-04-12T19:22:38.514Z,3.20
2023-04-12T19:25:07.336Z,3.43
2023-04-12T19:27:35.169Z,2.90
2023-04-12T19:30:03.450Z,3.40
2023-04-12T19:32:32.580Z,2.67
2023-04-12T19:35:00.827Z,2.70
2023-04-12T19:37:33.702Z,3.20
2023-04-12T19:40:01.435Z,2.57
2023-04-12T19:42:29.205Z,3.10
2023-04-12T19:44:56.948Z,2.70
2023-04-12T19:47:25.932Z,3.10
2023-04-12T19:49:55.935Z,4.70
2023-04-12T19:52:23.809Z,2.87
2023-04-12T19:54:52.533Z,2.87
2023-04-12T19:57:20.309Z,2.67
2023-04-12T19:59:48.073Z,3.40
2023-04-12T20:02:15.950Z,3.40
2023-04-12T20:04:43.766Z,3.03
2023-04-12T20:07:12.963Z,4.00
2023-04-12T20:09:40.831Z,3.40
2023-04-12T20:12:08.925Z,4.00
2023-04-12T20:14:38.290Z,3.40
2023-04-12T20:17:06.893Z,3.10
2023-04-12T20:19:34.699Z,3.67
2023-04-12T20:22:03.782Z,4.10
2023-04-12T20:24:34.434Z,3.00
2023-04-12T20:27:03.740Z,2.30
2023-04-12T20:29:33.330Z,3.23
2023-04-12T20:32:02.215Z,2.93
2023-04-12T20:34:29.988Z,2.70
2023-04-12T20:36:57.791Z,3.03
2023-04-12T20:39:25.492Z,3.30
2023-04-12T20:41:57.565Z,2.90
2023-04-12T20:44:25.373Z,3.03
2023-04-12T20:46:53.441Z,2.80
2023-04-12T20:49:21.171Z,2.90
2023-04-12T20:51:49.895Z,4.77
2023-04-12T20:54:18.354Z,3.10
2023-04-12T20:56:46.154Z,3.57
2023-04-12T20:59:21.773Z,3.17
2023-04-12T21:01:49.848Z,3.07
2023-04-12T21:04:18.172Z,3.20
2023-04-12T21:06:47.578Z,3.10
2023-04-12T21:09:15.932Z,3.60
2023-04-12T21:11:50.294Z,2.43
2023-04-12T21:14:19.945Z,3.50
2023-04-12T21:16:48.779Z,2.90
2023-04-12T21:19:18.086Z,3.27
2023-04-12T21:21:46.109Z,3.63
2023-04-12T21:24:14.234Z,3.07
2023-04-12T21:26:43.780Z,3.87
2023-04-12T21:29:11.858Z,3.13
2023-04-12T21:31:41.614Z,3.43
2023-04-12T21:34:10.128Z,3.77
2023-04-12T21:36:38.654Z,4.23
2023-04-12T21:39:07.692Z,4.03
2023-04-12T21:41:37.196Z,3.60
2023-04-12T21:44:05.074Z,3.23
2023-04-12T21:46:32.885Z,3.87
2023-04-12T21:49:02.124Z,3.13
2023-04-12T21:51:29.919Z,3.27
2023-04-12T21:53:57.745Z,3.10
2023-04-12T21:56:25.564Z,3.40
2023-04-12T21:58:53.253Z,3.67
2023-04-12T22:01:21.195Z,4.37
2023-04-12T22:03:49.000Z,4.40
2023-04-12T22:06:19.544Z,4.20
2023-04-12T22:08:48.201Z,4.33
2023-04-12T22:11:16.550Z,3.27
2023-04-12T22:13:46.773Z,4.10
2023-04-12T22:16:16.172Z,4.17
2023-04-12T22:18:45.543Z,4.60
2023-04-12T22:21:13.706Z,3.87
2023-04-12T22:23:44.053Z,3.97
2023-04-12T22:26:13.295Z,3.70
2023-04-12T22:28:44.364Z,4.17
2023-04-12T22:31:15.966Z,5.03
2023-04-12T22:33:47.785Z,4.30
2023-04-12T22:36:15.648Z,4.37
2023-04-12T22:38:47.483Z,4.10
2023-04-12T22:41:16.843Z,4.80
2023-04-12T22:43:47.512Z,4.00
2023-04-12T22:46:17.303Z,3.87
2023-04-12T22:48:45.902Z,14.57
2023-04-12T22:51:14.053Z,10.50
2023-04-12T22:53:43.286Z,7.80
2023-04-12T22:56:13.562Z,10.70
2023-04-12T22:58:42.886Z,6.27
2023-04-12T23:01:11.325Z,5.40
2023-04-12T23:03:41.512Z,13.43
2023-04-12T23:06:09.681Z,18.47
2023-04-12T23:08:38.596Z,14.03
2023-04-12T23:11:06.996Z,50.53
2023-04-12T23:13:36.187Z,55.33
2023-04-12T23:16:05.024Z,92.67
2023-04-12T23:18:33.197Z,104.10
2023-04-12T23:21:01.586Z,82.97
2023-04-12T23:23:29.965Z,77.60
2023-04-12T23:25:58.108Z,71.13
2023-04-12T23:28:26.545Z,51.83
2023-04-12T23:30:57.541Z,49.87
2023-04-12T23:33:25.371Z,104.33
2023-04-12T23:35:53.456Z,85.03
2023-04-12T23:38:31.886Z,73.20
2023-04-12T23:41:00.781Z,102.37
2023-04-12T23:43:29.352Z,104.53
2023-04-12T23:45:58.619Z,81.87
2023-04-12T23:48:26.400Z,23.33
2023-04-12T23:50:54.162Z,9.73
2023-04-12T23:53:22.585Z,6.77
2023-04-12T23:55:52.314Z,44.97
2023-04-12T23:58:21.053Z,8.20
